createdAt,value
2022-10-24T00:00:25.043Z,3.90
2022-10-24T00:03:14.803Z,4.30
2022-10-24T00:05:45.848Z,4.60
2022-10-24T00:08:17.483Z,5.20
2022-10-24T00:10:49.245Z,5.20
2022-10-24T00:13:19.381Z,5.10
2022-10-24T00:15:50.344Z,5.30
2022-10-24T00:18:19.173Z,5.20
2022-10-24T00:20:51.526Z,5.40
2022-10-24T00:23:20.373Z,5.30
2022-10-24T00:25:49.966Z,4.80
2022-10-24T00:28:17.820Z,5.40
2022-10-24T00:30:45.660Z,5.70
2022-10-24T00:33:13.440Z,5.00
2022-10-24T00:35:42.766Z,5.00
2022-10-24T00:38:11.619Z,5.70
2022-10-24T00:40:40.057Z,5.00
2022-10-24T00:43:23.954Z,5.40
2022-10-24T00:46:00.500Z,5.00
2022-10-24T00:48:41.923Z,5.50
2022-10-24T00:51:19.552Z,5.30
2022-10-24T00:54:06.645Z,5.40
2022-10-24T00:57:21.187Z,5.30
2022-10-24T00:59:54.838Z,5.00
2022-10-24T01:02:24.176Z,5.40
2022-10-24T01:04:54.730Z,5.20
2022-10-24T01:07:28.989Z,4.90
2022-10-24T01:10:24.112Z,4.50
2022-10-24T01:12:55.266Z,4.50
2022-10-24T01:15:36.687Z,4.60
2022-10-24T01:18:07.988Z,4.40
2022-10-24T01:21:03.224Z,4.60
2022-10-24T01:23:58.632Z,4.50
2022-10-24T01:26:56.885Z,3.80
2022-10-24T01:29:39.978Z,3.80
2022-10-24T01:32:20.202Z,4.10
2022-10-24T01:35:05.673Z,4.00
2022-10-24T01:37:46.564Z,4.20
2022-10-24T01:40:30.671Z,3.80
2022-10-24T01:45:35.027Z,3.80
2022-10-24T01:48:07.597Z,3.90
2022-10-24T01:50:38.530Z,3.60
2022-10-24T01:53:08.272Z,3.70
2022-10-24T01:55:38.291Z,3.30
2022-10-24T01:58:08.055Z,3.70
2022-10-24T02:00:38.750Z,3.60
2022-10-24T02:03:21.249Z,3.60
2022-10-24T02:05:57.459Z,3.50
2022-10-24T02:08:30.428Z,3.60
2022-10-24T02:11:03.895Z,3.90
2022-10-24T02:16:21.011Z,3.70
2022-10-24T02:18:54.590Z,3.80
2022-10-24T02:24:01.577Z,3.80
2022-10-24T02:26:35.335Z,3.70
2022-10-24T02:29:11.684Z,4.10
2022-10-24T02:31:45.341Z,3.50
2022-10-24T02:36:45.804Z,3.40
2022-10-24T02:39:14.927Z,3.60
2022-10-24T02:41:45.540Z,3.80
2022-10-24T02:44:16.717Z,3.40
2022-10-24T02:46:46.491Z,4.00
2022-10-24T02:49:16.606Z,3.80
2022-10-24T02:51:47.061Z,3.70
2022-10-24T02:54:14.903Z,3.80
2022-10-24T02:56:49.613Z,4.00
2022-10-24T02:59:17.372Z,3.50
2022-10-24T03:01:45.272Z,3.50
2022-10-24T03:04:13.035Z,3.60
2022-10-24T03:06:41.221Z,3.30
2022-10-24T03:09:09.345Z,3.90
2022-10-24T03:11:37.656Z,3.70
2022-10-24T03:14:06.267Z,3.60
2022-10-24T03:16:34.125Z,3.70
2022-10-24T03:19:02.286Z,4.00
2022-10-24T03:21:31.954Z,3.80
2022-10-24T03:24:00.233Z,3.70
2022-10-24T03:26:28.350Z,4.20
2022-10-24T03:28:57.022Z,3.60
2022-10-24T03:31:27.968Z,3.90
2022-10-24T03:33:56.452Z,4.10
2022-10-24T03:36:24.931Z,4.10
2022-10-24T03:38:53.002Z,4.30
2022-10-24T03:41:26.164Z,4.10
2022-10-24T03:44:00.408Z,4.30
2022-10-24T03:46:28.150Z,4.10
2022-10-24T03:48:56.001Z,4.20
2022-10-24T03:51:23.781Z,4.20
2022-10-24T03:53:54.652Z,4.40
2022-10-24T03:56:23.252Z,4.10
2022-10-24T03:58:51.429Z,4.70
2022-10-24T04:01:19.812Z,4.60
2022-10-24T04:03:47.965Z,5.00
2022-10-24T04:06:15.798Z,4.50
2022-10-24T04:08:43.620Z,5.00
2022-10-24T04:11:12.161Z,4.50
2022-10-24T04:13:40.822Z,4.80
2022-10-24T04:16:11.497Z,4.10
2022-10-24T04:18:39.675Z,4.60
2022-10-24T04:21:07.424Z,4.80
2022-10-24T04:23:41.036Z,4.70
2022-10-24T04:28:37.540Z,4.60
2022-10-24T04:31:06.852Z,4.40
2022-10-24T04:33:36.465Z,5.10
2022-10-24T04:36:07.341Z,5.50
2022-10-24T04:38:36.642Z,4.80
2022-10-24T04:41:07.261Z,4.50
2022-10-24T04:43:37.757Z,4.30
2022-10-24T04:46:05.665Z,4.50
2022-10-24T04:48:33.481Z,4.30
2022-10-24T04:51:01.785Z,4.00
2022-10-24T04:53:30.266Z,4.30
2022-10-24T04:55:58.452Z,4.10
2022-10-24T04:58:26.206Z,4.60
2022-10-24T05:01:01.428Z,4.30
2022-10-24T05:03:29.788Z,4.00
2022-10-24T05:05:57.580Z,4.00
2022-10-24T05:08:25.353Z,4.50
2022-10-24T05:10:53.480Z,4.20
2022-10-24T05:13:21.913Z,4.50
2022-10-24T05:15:49.614Z,4.90
2022-10-24T05:18:17.677Z,4.10
2022-10-24T05:20:45.477Z,5.00
2022-10-24T05:23:13.376Z,4.00
2022-10-24T05:25:41.170Z,4.50
2022-10-24T05:28:08.916Z,4.40
2022-10-24T05:30:36.620Z,4.60
2022-10-24T05:33:04.429Z,4.30
2022-10-24T05:35:32.162Z,4.30
2022-10-24T05:37:59.889Z,4.50
2022-10-24T05:40:27.773Z,4.50
2022-10-24T05:42:56.409Z,4.40
2022-10-24T05:45:25.332Z,4.80
2022-10-24T05:47:53.092Z,4.60
2022-10-24T05:50:21.206Z,4.50
2022-10-24T05:52:49.260Z,5.60
2022-10-24T05:55:18.470Z,4.90
2022-10-24T05:57:47.583Z,4.70
2022-10-24T06:00:17.743Z,5.20
2022-10-24T06:05:20.012Z,6.00
2022-10-24T06:07:48.805Z,6.20
2022-10-24T06:10:17.311Z,6.60
2022-10-24T06:12:45.470Z,5.30
2022-10-24T06:15:15.272Z,5.60
2022-10-24T06:17:43.248Z,5.20
2022-10-24T06:20:11.982Z,6.00
2022-10-24T06:22:39.997Z,5.50
2022-10-24T06:25:08.215Z,4.90
2022-10-24T06:27:36.030Z,4.80
2022-10-24T06:30:06.348Z,5.10
2022-10-24T06:32:38.584Z,5.50
2022-10-24T06:35:11.880Z,5.10
2022-10-24T06:37:42.921Z,5.40
2022-10-24T06:42:42.720Z,4.60
2022-10-24T06:45:11.043Z,6.00
2022-10-24T06:47:39.208Z,4.70
2022-10-24T06:50:07.691Z,4.50
2022-10-24T06:52:36.937Z,5.00
2022-10-24T06:55:06.434Z,5.40
2022-10-24T06:57:35.406Z,4.90
2022-10-24T07:00:05.579Z,5.20
2022-10-24T07:02:34.061Z,4.60
2022-10-24T07:05:03.919Z,5.70
2022-10-24T07:07:34.605Z,5.60
2022-10-24T07:10:02.407Z,5.00
2022-10-24T07:12:30.591Z,4.90
2022-10-24T07:14:59.041Z,5.20
2022-10-24T07:17:27.704Z,4.60
2022-10-24T07:19:56.961Z,4.60
2022-10-24T07:22:24.780Z,5.30
2022-10-24T07:24:54.859Z,4.60
2022-10-24T07:27:23.225Z,4.00
2022-10-24T07:29:51.781Z,4.50
2022-10-24T07:32:21.139Z,4.50
2022-10-24T07:34:49.070Z,3.70
2022-10-24T07:37:18.649Z,4.50
2022-10-24T07:39:46.817Z,4.20
2022-10-24T07:42:16.058Z,5.10
2022-10-24T07:44:46.957Z,4.00
2022-10-24T07:47:16.858Z,4.00
2022-10-24T07:49:45.292Z,4.30
2022-10-24T07:52:13.765Z,3.90
2022-10-24T07:54:42.782Z,3.70
2022-10-24T07:57:11.933Z,3.30
2022-10-24T07:59:42.453Z,3.50
2022-10-24T08:02:25.270Z,3.40
2022-10-24T08:05:06.293Z,3.60
2022-10-24T08:07:38.683Z,3.00
2022-10-24T08:10:09.427Z,2.90
2022-10-24T08:12:44.475Z,2.70
2022-10-24T08:15:12.776Z,2.50
2022-10-24T08:17:42.034Z,2.70
2022-10-24T08:20:10.654Z,3.60
2022-10-24T08:22:38.795Z,2.40
2022-10-24T08:25:09.872Z,3.90
2022-10-24T08:27:39.410Z,3.60
2022-10-24T08:30:12.602Z,2.90
2022-10-24T08:32:41.705Z,3.10
2022-10-24T08:35:10.512Z,2.90
2022-10-24T08:37:41.400Z,2.20
2022-10-24T08:40:15.671Z,2.30
2022-10-24T08:42:44.744Z,2.50
2022-10-24T08:45:19.743Z,2.90
2022-10-24T08:47:57.217Z,2.20
2022-10-24T08:50:30.629Z,2.80
2022-10-24T08:53:15.750Z,2.20
2022-10-24T08:55:50.342Z,2.60
2022-10-24T08:58:26.697Z,4.00
2022-10-24T09:00:58.032Z,3.10
2022-10-24T09:06:28.746Z,2.70
2022-10-24T09:09:09.826Z,2.50
2022-10-24T09:12:03.339Z,2.40
2022-10-24T09:14:33.992Z,2.60
2022-10-24T09:17:22.582Z,2.70
2022-10-24T09:20:20.392Z,2.30
2022-10-24T09:22:48.697Z,3.00
2022-10-24T09:25:21.228Z,3.40
2022-10-24T09:27:50.230Z,3.50
2022-10-24T09:30:22.429Z,3.60
2022-10-24T09:32:51.278Z,3.20
2022-10-24T09:35:25.729Z,2.80
2022-10-24T09:37:58.999Z,3.20
2022-10-24T09:40:34.704Z,2.90
2022-10-24T09:43:18.221Z,2.70
2022-10-24T09:45:51.313Z,2.50
2022-10-24T09:48:29.459Z,2.60
2022-10-24T09:51:00.417Z,2.60
2022-10-24T09:53:36.268Z,4.00
2022-10-24T09:56:13.332Z,5.20
2022-10-24T09:58:43.570Z,3.50
2022-10-24T10:01:17.495Z,2.30
2022-10-24T10:04:08.809Z,2.50
2022-10-24T10:06:44.867Z,2.90
2022-10-24T10:09:24.000Z,2.70
2022-10-24T10:12:02.606Z,2.90
2022-10-24T10:14:32.665Z,2.70
2022-10-24T10:17:05.241Z,2.60
2022-10-24T10:19:37.793Z,2.80
2022-10-24T10:22:26.549Z,2.60
2022-10-24T10:24:56.501Z,2.80
2022-10-24T10:27:41.315Z,2.80
2022-10-24T10:30:35.187Z,2.70
2022-10-24T10:36:20.149Z,2.50
2022-10-24T10:39:24.775Z,2.90
2022-10-24T10:42:21.990Z,3.70
2022-10-24T10:45:34.445Z,4.20
2022-10-24T10:48:39.374Z,3.00
2022-10-24T10:51:16.714Z,2.40
2022-10-24T10:54:42.713Z,2.90
2022-10-24T10:57:37.147Z,2.60
2022-10-24T11:00:15.661Z,3.70
2022-10-24T11:03:06.219Z,4.30
2022-10-24T11:05:53.615Z,3.50
2022-10-24T11:08:41.091Z,3.80
2022-10-24T11:11:22.724Z,3.00
2022-10-24T11:14:17.871Z,2.50
2022-10-24T11:16:46.838Z,3.30
2022-10-24T11:19:30.067Z,4.10
2022-10-24T11:22:03.437Z,3.10
2022-10-24T11:27:21.740Z,3.00
2022-10-24T11:30:19.555Z,2.60
2022-10-24T11:32:52.761Z,2.60
2022-10-24T11:35:24.453Z,3.00
2022-10-24T11:37:59.369Z,3.00
2022-10-24T11:40:30.511Z,2.40
2022-10-24T11:43:10.980Z,2.70
2022-10-24T11:46:02.726Z,2.50
2022-10-24T11:51:28.146Z,2.70
2022-10-24T11:54:12.308Z,2.80
2022-10-24T11:56:51.672Z,2.70
2022-10-24T11:59:26.335Z,3.00
2022-10-24T12:01:57.673Z,2.60
2022-10-24T12:05:11.217Z,2.70
2022-10-24T12:08:05.088Z,2.60
2022-10-24T12:10:45.199Z,2.70
2022-10-24T12:13:31.417Z,2.40
2022-10-24T12:16:15.792Z,1.90
2022-10-24T12:18:47.839Z,2.50
2022-10-24T12:21:24.762Z,2.80
2022-10-24T12:24:00.291Z,2.60
2022-10-24T12:26:34.357Z,2.40
2022-10-24T12:29:05.954Z,2.40
2022-10-24T12:31:37.421Z,2.30
2022-10-24T12:34:22.893Z,2.10
2022-10-24T12:37:30.929Z,2.50
2022-10-24T12:39:59.188Z,2.40
2022-10-24T12:42:26.981Z,2.40
2022-10-24T12:45:00.946Z,2.30
2022-10-24T12:47:49.992Z,2.40
2022-10-24T12:50:53.897Z,2.70
2022-10-24T12:53:38.765Z,2.20
2022-10-24T12:56:13.701Z,2.40
2022-10-24T12:58:44.500Z,2.50
2022-10-24T13:01:27.496Z,2.60
2022-10-24T13:04:18.397Z,2.90
2022-10-24T13:07:02.435Z,2.40
2022-10-24T13:09:45.480Z,2.50
2022-10-24T13:12:51.394Z,3.80
2022-10-24T13:15:25.405Z,2.90
2022-10-24T13:18:13.925Z,3.00
2022-10-24T13:20:45.179Z,3.10
2022-10-24T13:23:26.500Z,3.90
2022-10-24T13:25:59.315Z,3.80
2022-10-24T13:28:28.369Z,3.30
2022-10-24T13:31:00.047Z,3.10
2022-10-24T13:33:31.128Z,3.40
2022-10-24T13:36:10.190Z,3.40
2022-10-24T13:38:51.615Z,3.60
2022-10-24T13:41:35.362Z,7.40
2022-10-24T13:44:10.283Z,5.90
2022-10-24T13:46:47.994Z,6.60
2022-10-24T13:49:27.983Z,5.70
2022-10-24T13:52:02.098Z,5.50
2022-10-24T13:54:38.133Z,7.10
2022-10-24T13:57:26.070Z,4.40
2022-10-24T13:59:56.900Z,4.50
2022-10-24T14:02:31.322Z,4.60
2022-10-24T14:05:01.842Z,3.60
2022-10-24T14:07:33.850Z,5.10
2022-10-24T14:10:13.776Z,3.70
2022-10-24T14:12:42.023Z,4.50
2022-10-24T14:15:24.929Z,6.20
2022-10-24T14:17:54.890Z,6.60
2022-10-24T14:20:26.773Z,4.70
2022-10-24T14:22:55.036Z,4.30
2022-10-24T14:25:30.164Z,3.70
2022-10-24T14:28:01.895Z,5.00
2022-10-24T14:30:33.560Z,5.80
2022-10-24T14:33:26.969Z,5.40
2022-10-24T14:35:58.213Z,5.50
2022-10-24T14:38:27.836Z,12.70
2022-10-24T14:41:08.452Z,12.00
2022-10-24T14:43:42.357Z,12.70
2022-10-24T14:46:14.263Z,10.50
2022-10-24T14:48:45.373Z,11.70
2022-10-24T14:51:39.131Z,8.90
2022-10-24T14:54:20.434Z,8.50
2022-10-24T14:56:49.852Z,7.40
2022-10-24T14:59:45.527Z,7.90
2022-10-24T15:02:29.003Z,8.00
2022-10-24T15:05:23.617Z,5.70
2022-10-24T15:08:21.076Z,3.60
2022-10-24T15:11:16.438Z,2.90
2022-10-24T15:13:48.159Z,3.50
2022-10-24T15:16:35.283Z,4.30
2022-10-24T15:19:06.138Z,3.30
2022-10-24T15:21:40.321Z,3.70
2022-10-24T15:24:27.077Z,3.90
2022-10-24T15:27:13.312Z,4.50
2022-10-24T15:30:01.018Z,4.40
2022-10-24T15:32:30.515Z,4.60
2022-10-24T15:34:58.235Z,4.50
2022-10-24T15:37:26.082Z,4.00
2022-10-24T15:39:54.491Z,5.10
2022-10-24T15:42:22.888Z,6.80
2022-10-24T15:44:50.706Z,8.20
2022-10-24T15:47:24.032Z,7.70
2022-10-24T15:49:52.388Z,8.20
2022-10-24T15:52:20.288Z,10.40
2022-10-24T15:54:48.015Z,10.10
2022-10-24T15:57:18.532Z,9.50
2022-10-24T15:59:46.852Z,8.20
2022-10-24T16:02:21.312Z,8.20
2022-10-24T16:04:49.812Z,11.20
2022-10-24T16:07:20.222Z,11.30
2022-10-24T16:09:48.027Z,11.20
2022-10-24T16:12:15.879Z,10.30
2022-10-24T16:14:43.622Z,11.70
2022-10-24T16:17:12.924Z,11.70
2022-10-24T16:19:40.694Z,10.90
2022-10-24T16:22:10.083Z,12.30
2022-10-24T16:24:38.181Z,11.00
2022-10-24T16:27:05.938Z,10.60
2022-10-24T16:29:36.134Z,10.20
2022-10-24T16:32:04.706Z,11.80
2022-10-24T16:34:33.053Z,12.40
2022-10-24T16:37:04.190Z,13.20
2022-10-24T16:39:34.305Z,14.30
2022-10-24T16:42:04.722Z,14.80
2022-10-24T16:44:35.379Z,13.00
2022-10-24T16:47:04.860Z,9.30
2022-10-24T16:49:33.169Z,8.20
2022-10-24T16:52:01.021Z,7.30
2022-10-24T16:54:28.793Z,5.50
2022-10-24T16:56:56.501Z,6.40
2022-10-24T16:59:24.423Z,7.10
2022-10-24T17:01:52.368Z,7.50
2022-10-24T17:04:23.826Z,8.90
2022-10-24T17:06:51.634Z,8.80
2022-10-24T17:09:21.989Z,10.10
2022-10-24T17:11:51.103Z,11.50
2022-10-24T17:14:20.489Z,17.10
2022-10-24T17:16:48.239Z,19.00
2022-10-24T17:19:17.256Z,16.90
2022-10-24T17:21:51.627Z,18.20
2022-10-24T17:26:52.290Z,18.80
2022-10-24T17:29:28.983Z,21.40
2022-10-24T17:31:58.125Z,18.50
2022-10-24T17:34:27.388Z,17.90
2022-10-24T17:37:05.409Z,16.60
2022-10-24T17:39:48.924Z,15.80
2022-10-24T17:42:28.916Z,14.20
2022-10-24T17:45:09.649Z,15.00
2022-10-24T17:50:20.756Z,10.60
2022-10-24T17:52:51.482Z,7.30
2022-10-24T17:58:12.172Z,8.10
2022-10-24T18:00:42.296Z,7.80
2022-10-24T18:03:11.142Z,7.20
2022-10-24T18:05:40.922Z,8.10
2022-10-24T18:08:11.319Z,8.30
2022-10-24T18:10:40.624Z,9.00
2022-10-24T18:13:10.885Z,12.20
2022-10-24T18:15:38.749Z,14.30
2022-10-24T18:18:07.276Z,15.20
2022-10-24T18:20:35.921Z,12.70
2022-10-24T18:23:04.305Z,9.30
2022-10-24T18:25:32.034Z,7.90
2022-10-24T18:28:00.216Z,6.70
2022-10-24T18:30:28.433Z,6.90
2022-10-24T18:32:57.489Z,6.70
2022-10-24T18:35:28.130Z,6.80
2022-10-24T18:37:56.572Z,6.60
2022-10-24T18:40:24.645Z,6.70
2022-10-24T18:43:07.524Z,8.30
2022-10-24T18:45:37.211Z,10.10
2022-10-24T18:48:05.641Z,9.90
2022-10-24T18:50:33.727Z,10.40
2022-10-24T18:53:06.861Z,9.30
2022-10-24T18:55:36.375Z,9.20
2022-10-24T18:58:12.841Z,9.60
2022-10-24T19:00:43.388Z,9.90
2022-10-24T19:03:40.426Z,10.20
2022-10-24T19:06:25.902Z,10.40
2022-10-24T19:08:54.041Z,11.60
2022-10-24T19:11:24.261Z,11.70
2022-10-24T19:13:52.278Z,12.80
2022-10-24T19:16:27.382Z,13.10
2022-10-24T19:19:00.084Z,10.50
2022-10-24T19:21:28.558Z,10.00
2022-10-24T19:23:56.308Z,8.80
2022-10-24T19:26:25.506Z,7.50
2022-10-24T19:28:53.401Z,6.70
2022-10-24T19:31:22.332Z,6.40
2022-10-24T19:33:53.349Z,5.70
2022-10-24T19:36:21.496Z,5.40
2022-10-24T19:38:55.823Z,4.90
2022-10-24T19:41:24.212Z,5.30
2022-10-24T19:43:52.161Z,4.40
2022-10-24T19:46:20.688Z,4.70
2022-10-24T19:48:49.573Z,4.20
2022-10-24T19:51:21.133Z,3.70
2022-10-24T19:53:49.811Z,3.30
2022-10-24T19:56:25.161Z,4.20
2022-10-24T19:58:54.795Z,3.40
2022-10-24T20:01:25.123Z,3.50
2022-10-24T20:03:55.656Z,3.40
2022-10-24T20:06:25.238Z,3.80
2022-10-24T20:08:53.541Z,3.60
2022-10-24T20:11:24.084Z,4.40
2022-10-24T20:13:53.540Z,4.30
2022-10-24T20:16:21.387Z,5.00
2022-10-24T20:18:49.972Z,4.70
2022-10-24T20:21:19.017Z,4.70
2022-10-24T20:23:48.516Z,3.90
2022-10-24T20:26:22.990Z,4.90
2022-10-24T20:28:54.502Z,3.80
2022-10-24T20:31:28.702Z,2.90
2022-10-24T20:34:05.014Z,2.80
2022-10-24T20:36:38.215Z,2.00
2022-10-24T20:39:07.790Z,2.60
2022-10-24T20:41:36.569Z,1.90
2022-10-24T20:44:07.840Z,1.80
2022-10-24T20:46:36.358Z,1.80
2022-10-24T20:49:05.335Z,2.50
2022-10-24T20:51:35.578Z,1.80
2022-10-24T20:54:07.603Z,2.10
2022-10-24T20:56:41.989Z,2.60
2022-10-24T20:59:13.486Z,2.90
2022-10-24T21:01:41.644Z,2.40
2022-10-24T21:04:09.969Z,2.30
2022-10-24T21:06:37.804Z,2.40
2022-10-24T21:09:07.996Z,2.40
2022-10-24T21:11:39.244Z,2.20
2022-10-24T21:14:12.457Z,2.30
2022-10-24T21:16:42.011Z,2.50
2022-10-24T21:19:10.875Z,2.50
2022-10-24T21:21:40.175Z,2.40
2022-10-24T21:24:17.022Z,3.10
2022-10-24T21:26:45.934Z,2.70
2022-10-24T21:29:32.251Z,3.10
2022-10-24T21:32:02.085Z,2.80
2022-10-24T21:34:34.406Z,3.00
2022-10-24T21:37:05.328Z,3.40
2022-10-24T21:39:34.625Z,3.80
2022-10-24T21:42:05.936Z,3.20
2022-10-24T21:44:36.125Z,3.80
2022-10-24T21:47:07.111Z,3.50
2022-10-24T21:49:36.067Z,3.50
2022-10-24T21:52:04.994Z,3.40
2022-10-24T21:54:33.425Z,3.30
2022-10-24T21:57:03.075Z,3.40
2022-10-24T21:59:31.850Z,3.40
2022-10-24T22:02:01.227Z,3.40
2022-10-24T22:04:30.450Z,3.60
2022-10-24T22:06:59.508Z,3.50
2022-10-24T22:09:30.552Z,3.30
2022-10-24T22:11:59.662Z,2.90
2022-10-24T22:14:28.341Z,3.10
2022-10-24T22:16:57.266Z,3.30
2022-10-24T22:19:27.019Z,3.10
2022-10-24T22:21:56.437Z,3.60
2022-10-24T22:24:25.045Z,3.50
2022-10-24T22:26:54.099Z,3.90
2022-10-24T22:29:24.732Z,3.40
2022-10-24T22:31:55.001Z,3.80
2022-10-24T22:34:25.397Z,3.40
2022-10-24T22:37:27.946Z,3.20
2022-10-24T22:39:57.735Z,3.40
2022-10-24T22:42:27.499Z,3.40
2022-10-24T22:44:58.273Z,3.50
2022-10-24T22:47:34.058Z,4.40
2022-10-24T22:50:15.196Z,3.30
2022-10-24T22:52:45.969Z,3.60
2022-10-24T22:55:24.372Z,3.70
2022-10-24T22:57:56.031Z,4.00
2022-10-24T23:00:26.136Z,3.50
2022-10-24T23:03:07.310Z,4.00
2022-10-24T23:08:39.533Z,4.00
2022-10-24T23:11:13.741Z,5.30
2022-10-24T23:13:44.408Z,4.70
2022-10-24T23:16:26.112Z,4.90
2022-10-24T23:18:56.390Z,4.30
2022-10-24T23:21:37.927Z,4.20
2022-10-24T23:24:17.042Z,4.00
2022-10-24T23:27:19.432Z,4.70
2022-10-24T23:29:50.337Z,4.50
2022-10-24T23:32:24.070Z,4.50
2022-10-24T23:34:54.551Z,4.40
2022-10-24T23:37:34.962Z,5.10
2022-10-24T23:40:23.368Z,4.60
2022-10-24T23:42:54.985Z,4.80
2022-10-24T23:45:27.341Z,5.00
2022-10-24T23:48:15.848Z,4.80
2022-10-24T23:51:02.109Z,5.00
2022-10-24T23:53:55.941Z,5.40
2022-10-24T23:56:28.696Z,5.10
2022-10-24T23:58:58.255Z,5.40
